sensor_id;sensor_type;location;lat;lon;timestamp;P1;durP1;ratioP1;P2;durP2;ratioP2
5937;SDS011;2994;51.220;4.412;2022-10-04T00:04:18;14.60;;;8.87;;
5937;SDS011;2994;51.220;4.412;2022-10-04T00:07:33;11.03;;;9.23;;
5937;SDS011;2994;51.220;4.412;2022-10-04T00:09:42;11.50;;;8.77;;
5937;SDS011;2994;51.220;4.412;2022-10-04T00:12:16;16.00;;;9.37;;
5937;SDS011;2994;51.220;4.412;2022-10-04T00:14:48;11.57;;;9.80;;
5937;SDS011;2994;51.220;4.412;2022-10-04T00:17:19;13.97;;;9.70;;
5937;SDS011;2994;51.220;4.412;2022-10-04T00:19:49;12.57;;;9.43;;
5937;SDS011;2994;51.220;4.412;2022-10-04T00:22:20;13.20;;;9.40;;
5937;SDS011;2994;51.220;4.412;2022-10-04T00:25:00;9.80;;;8.80;;
5937;SDS011;2994;51.220;4.412;2022-10-04T00:27:26;10.30;;;9.30;;
5937;SDS011;2994;51.220;4.412;2022-10-04T00:37:58;12.63;;;9.40;;
5937;SDS011;2994;51.220;4.412;2022-10-04T00:43:28;11.87;;;9.10;;
5937;SDS011;2994;51.220;4.412;2022-10-04T00:46:17;12.07;;;10.07;;
5937;SDS011;2994;51.220;4.412;2022-10-04T00:48:51;12.33;;;9.10;;
5937;SDS011;2994;51.220;4.412;2022-10-04T00:51:34;10.83;;;8.60;;
5937;SDS011;2994;51.220;4.412;2022-10-04T00:54:12;10.70;;;8.40;;
5937;SDS011;2994;51.220;4.412;2022-10-04T00:56:50;12.10;;;8.97;;
5937;SDS011;2994;51.220;4.412;2022-10-04T01:02:01;11.37;;;9.57;;
5937;SDS011;2994;51.220;4.412;2022-10-04T01:04:32;13.80;;;9.93;;
5937;SDS011;2994;51.220;4.412;2022-10-04T01:07:32;13.77;;;9.70;;
5937;SDS011;2994;51.220;4.412;2022-10-04T01:10:17;12.87;;;9.80;;
5937;SDS011;2994;51.220;4.412;2022-10-04T01:28:54;13.63;;;11.03;;
5937;SDS011;2994;51.220;4.412;2022-10-04T01:31:32;13.30;;;10.17;;
5937;SDS011;2994;51.220;4.412;2022-10-04T01:34:00;10.80;;;9.07;;
5937;SDS011;2994;51.220;4.412;2022-10-04T01:36:26;9.60;;;8.43;;
5937;SDS011;2994;51.220;4.412;2022-10-04T01:38:53;12.97;;;8.60;;
5937;SDS011;2994;51.220;4.412;2022-10-04T01:41:20;13.37;;;9.27;;
5937;SDS011;2994;51.220;4.412;2022-10-04T01:43:52;13.67;;;8.90;;
5937;SDS011;2994;51.220;4.412;2022-10-04T01:46:23;11.07;;;9.97;;
5937;SDS011;2994;51.220;4.412;2022-10-04T01:48:51;10.83;;;9.03;;
5937;SDS011;2994;51.220;4.412;2022-10-04T01:51:22;12.43;;;9.57;;
5937;SDS011;2994;51.220;4.412;2022-10-04T01:53:58;10.60;;;8.90;;
5937;SDS011;2994;51.220;4.412;2022-10-04T01:56:31;11.03;;;9.07;;
5937;SDS011;2994;51.220;4.412;2022-10-04T01:59:05;15.23;;;9.47;;
5937;SDS011;2994;51.220;4.412;2022-10-04T02:01:38;10.73;;;9.60;;
5937;SDS011;2994;51.220;4.412;2022-10-04T02:04:12;12.27;;;10.30;;
5937;SDS011;2994;51.220;4.412;2022-10-04T02:06:42;11.17;;;8.97;;
5937;SDS011;2994;51.220;4.412;2022-10-04T02:09:11;12.80;;;10.10;;
5937;SDS011;2994;51.220;4.412;2022-10-04T02:11:40;13.20;;;8.93;;
5937;SDS011;2994;51.220;4.412;2022-10-04T02:14:16;13.30;;;9.73;;
5937;SDS011;2994;51.220;4.412;2022-10-04T02:16:46;13.20;;;10.10;;
5937;SDS011;2994;51.220;4.412;2022-10-04T02:19:14;13.10;;;10.00;;
5937;SDS011;2994;51.220;4.412;2022-10-04T02:21:40;11.03;;;9.43;;
5937;SDS011;2994;51.220;4.412;2022-10-04T02:24:07;13.07;;;9.70;;
5937;SDS011;2994;51.220;4.412;2022-10-04T02:26:33;11.80;;;9.10;;
5937;SDS011;2994;51.220;4.412;2022-10-04T02:28:59;12.97;;;10.20;;
5937;SDS011;2994;51.220;4.412;2022-10-04T02:31:24;14.13;;;9.87;;
5937;SDS011;2994;51.220;4.412;2022-10-04T02:34:09;12.23;;;10.03;;
5937;SDS011;2994;51.220;4.412;2022-10-04T02:36:35;11.07;;;9.97;;
5937;SDS011;2994;51.220;4.412;2022-10-04T02:39:09;15.17;;;9.57;;
5937;SDS011;2994;51.220;4.412;2022-10-04T02:44:12;13.73;;;10.27;;
5937;SDS011;2994;51.220;4.412;2022-10-04T02:49:36;15.30;;;10.83;;
5937;SDS011;2994;51.220;4.412;2022-10-04T02:55:03;12.07;;;10.17;;
5937;SDS011;2994;51.220;4.412;2022-10-04T02:57:47;12.40;;;10.03;;
5937;SDS011;2994;51.220;4.412;2022-10-04T03:08:26;13.53;;;9.53;;
5937;SDS011;2994;51.220;4.412;2022-10-04T03:10:54;14.27;;;11.27;;
5937;SDS011;2994;51.220;4.412;2022-10-04T03:13:23;12.83;;;11.13;;
5937;SDS011;2994;51.220;4.412;2022-10-04T03:15:48;13.70;;;10.40;;
5937;SDS011;2994;51.220;4.412;2022-10-04T03:18:14;13.43;;;10.00;;
5937;SDS011;2994;51.220;4.412;2022-10-04T03:20:41;10.90;;;9.80;;
5937;SDS011;2994;51.220;4.412;2022-10-04T03:23:07;13.87;;;10.60;;
5937;SDS011;2994;51.220;4.412;2022-10-04T03:25:40;13.43;;;11.00;;
5937;SDS011;2994;51.220;4.412;2022-10-04T03:28:12;12.23;;;11.03;;
5937;SDS011;2994;51.220;4.412;2022-10-04T03:30:42;14.47;;;12.33;;
5937;SDS011;2994;51.220;4.412;2022-10-04T03:33:13;14.87;;;12.60;;
5937;SDS011;2994;51.220;4.412;2022-10-04T03:35:45;17.80;;;12.73;;
5937;SDS011;2994;51.220;4.412;2022-10-04T03:38:14;14.50;;;13.10;;
5937;SDS011;2994;51.220;4.412;2022-10-04T03:40:43;13.70;;;11.40;;
5937;SDS011;2994;51.220;4.412;2022-10-04T03:43:15;14.70;;;11.60;;
5937;SDS011;2994;51.220;4.412;2022-10-04T03:45:41;15.13;;;12.83;;
5937;SDS011;2994;51.220;4.412;2022-10-04T03:48:07;17.13;;;10.83;;
5937;SDS011;2994;51.220;4.412;2022-10-04T03:50:38;14.93;;;11.70;;
5937;SDS011;2994;51.220;4.412;2022-10-04T03:53:13;17.77;;;12.57;;
5937;SDS011;2994;51.220;4.412;2022-10-04T03:55:47;13.70;;;11.70;;
5937;SDS011;2994;51.220;4.412;2022-10-04T03:58:13;16.43;;;11.40;;
5937;SDS011;2994;51.220;4.412;2022-10-04T04:01:03;12.87;;;11.20;;
5937;SDS011;2994;51.220;4.412;2022-10-04T04:03:42;15.80;;;10.63;;
5937;SDS011;2994;51.220;4.412;2022-10-04T04:06:32;13.13;;;11.20;;
5937;SDS011;2994;51.220;4.412;2022-10-04T04:09:04;14.80;;;10.73;;
5937;SDS011;2994;51.220;4.412;2022-10-04T04:11:31;13.07;;;10.67;;
5937;SDS011;2994;51.220;4.412;2022-10-04T04:16:39;12.77;;;10.77;;
5937;SDS011;2994;51.220;4.412;2022-10-04T04:19:09;15.17;;;10.53;;
5937;SDS011;2994;51.220;4.412;2022-10-04T04:21:37;12.73;;;11.10;;
5937;SDS011;2994;51.220;4.412;2022-10-04T04:24:13;14.27;;;10.50;;
5937;SDS011;2994;51.220;4.412;2022-10-04T04:26:49;14.13;;;10.70;;
5937;SDS011;2994;51.220;4.412;2022-10-04T04:34:20;14.97;;;11.73;;
5937;SDS011;2994;51.220;4.412;2022-10-04T04:36:48;11.90;;;10.07;;
5937;SDS011;2994;51.220;4.412;2022-10-04T04:39:17;15.07;;;11.40;;
5937;SDS011;2994;51.220;4.412;2022-10-04T04:42:14;12.57;;;10.73;;
5937;SDS011;2994;51.220;4.412;2022-10-04T04:44:48;11.50;;;10.17;;
5937;SDS011;2994;51.220;4.412;2022-10-04T04:49:51;12.03;;;9.93;;
5937;SDS011;2994;51.220;4.412;2022-10-04T04:52:17;13.10;;;10.30;;
5937;SDS011;2994;51.220;4.412;2022-10-04T04:54:45;11.90;;;10.27;;
5937;SDS011;2994;51.220;4.412;2022-10-04T04:57:14;14.07;;;9.87;;
5937;SDS011;2994;51.220;4.412;2022-10-04T04:59:43;13.97;;;9.20;;
5937;SDS011;2994;51.220;4.412;2022-10-04T05:07:47;10.43;;;8.77;;
5937;SDS011;2994;51.220;4.412;2022-10-04T05:12:45;8.93;;;8.03;;
5937;SDS011;2994;51.220;4.412;2022-10-04T05:15:12;12.00;;;9.17;;
5937;SDS011;2994;51.220;4.412;2022-10-04T05:17:37;11.53;;;9.10;;
5937;SDS011;2994;51.220;4.412;2022-10-04T05:20:03;11.43;;;8.97;;
5937;SDS011;2994;51.220;4.412;2022-10-04T05:22:29;10.47;;;9.07;;
5937;SDS011;2994;51.220;4.412;2022-10-04T05:25:06;13.30;;;9.80;;
5937;SDS011;2994;51.220;4.412;2022-10-04T05:27:39;11.13;;;8.97;;
5937;SDS011;2994;51.220;4.412;2022-10-04T05:30:13;11.80;;;8.13;;
5937;SDS011;2994;51.220;4.412;2022-10-04T05:33:00;11.40;;;8.80;;
5937;SDS011;2994;51.220;4.412;2022-10-04T05:35:29;10.67;;;8.90;;
5937;SDS011;2994;51.220;4.412;2022-10-04T05:38:07;10.23;;;8.57;;
5937;SDS011;2994;51.220;4.412;2022-10-04T05:48:43;10.27;;;7.87;;
5937;SDS011;2994;51.220;4.412;2022-10-04T05:51:11;14.90;;;9.87;;
5937;SDS011;2994;51.220;4.412;2022-10-04T05:53:43;9.60;;;8.60;;
5937;SDS011;2994;51.220;4.412;2022-10-04T06:07:36;9.80;;;8.57;;
5937;SDS011;2994;51.220;4.412;2022-10-04T06:18:37;11.93;;;9.00;;
5937;SDS011;2994;51.220;4.412;2022-10-04T06:23:49;14.23;;;8.90;;
5937;SDS011;2994;51.220;4.412;2022-10-04T06:26:20;11.63;;;8.27;;
5937;SDS011;2994;51.220;4.412;2022-10-04T06:28:54;9.53;;;8.63;;
5937;SDS011;2994;51.220;4.412;2022-10-04T06:34:16;10.50;;;8.53;;
5937;SDS011;2994;51.220;4.412;2022-10-04T06:43:06;11.10;;;8.10;;
5937;SDS011;2994;51.220;4.412;2022-10-04T06:53:45;11.90;;;9.57;;
5937;SDS011;2994;51.220;4.412;2022-10-04T07:02:12;13.13;;;10.00;;
5937;SDS011;2994;51.220;4.412;2022-10-04T07:04:49;13.17;;;10.53;;
5937;SDS011;2994;51.220;4.412;2022-10-04T07:09:51;11.70;;;10.03;;
5937;SDS011;2994;51.220;4.412;2022-10-04T07:12:21;15.00;;;9.97;;
5937;SDS011;2994;51.220;4.412;2022-10-04T07:14:49;14.40;;;9.97;;
5937;SDS011;2994;51.220;4.412;2022-10-04T07:17:23;14.93;;;10.13;;
5937;SDS011;2994;51.220;4.412;2022-10-04T07:19:53;10.40;;;9.03;;
5937;SDS011;2994;51.220;4.412;2022-10-04T07:22:24;9.97;;;8.10;;
5937;SDS011;2994;51.220;4.412;2022-10-04T07:27:53;13.97;;;9.83;;
5937;SDS011;2994;51.220;4.412;2022-10-04T07:33:30;12.70;;;10.57;;
5937;SDS011;2994;51.220;4.412;2022-10-04T07:36:07;15.03;;;10.30;;
5937;SDS011;2994;51.220;4.412;2022-10-04T07:38:47;11.33;;;9.37;;
5937;SDS011;2994;51.220;4.412;2022-10-04T07:41:21;14.30;;;10.67;;
5937;SDS011;2994;51.220;4.412;2022-10-04T07:49:16;12.63;;;9.13;;
5937;SDS011;2994;51.220;4.412;2022-10-04T08:05:40;13.07;;;9.77;;
5937;SDS011;2994;51.220;4.412;2022-10-04T08:16:15;11.63;;;8.97;;
5937;SDS011;2994;51.220;4.412;2022-10-04T08:19:05;10.27;;;8.70;;
5937;SDS011;2994;51.220;4.412;2022-10-04T08:21:45;16.90;;;8.77;;
5937;SDS011;2994;51.220;4.412;2022-10-04T08:24:26;12.10;;;8.70;;
5937;SDS011;2994;51.220;4.412;2022-10-04T08:48:50;19.20;;;9.90;;
5937;SDS011;2994;51.220;4.412;2022-10-04T08:51:29;11.40;;;7.90;;
5937;SDS011;2994;51.220;4.412;2022-10-04T09:10:49;12.30;;;7.63;;
5937;SDS011;2994;51.220;4.412;2022-10-04T09:16:26;8.13;;;7.20;;
5937;SDS011;2994;51.220;4.412;2022-10-04T09:37:47;16.20;;;8.47;;
5937;SDS011;2994;51.220;4.412;2022-10-04T09:43:22;14.50;;;8.93;;
5937;SDS011;2994;51.220;4.412;2022-10-04T09:46:23;15.10;;;7.33;;
5937;SDS011;2994;51.220;4.412;2022-10-04T09:55:05;13.63;;;7.30;;
5937;SDS011;2994;51.220;4.412;2022-10-04T09:57:42;15.27;;;8.47;;
5937;SDS011;2994;51.220;4.412;2022-10-04T10:06:16;9.20;;;7.77;;
5937;SDS011;2994;51.220;4.412;2022-10-04T10:11:42;8.77;;;7.37;;
5937;SDS011;2994;51.220;4.412;2022-10-04T10:17:54;7.93;;;5.80;;
5937;SDS011;2994;51.220;4.412;2022-10-04T10:20:58;8.53;;;7.13;;
5937;SDS011;2994;51.220;4.412;2022-10-04T10:26:05;7.97;;;6.60;;
5937;SDS011;2994;51.220;4.412;2022-10-04T10:28:50;7.20;;;6.50;;
5937;SDS011;2994;51.220;4.412;2022-10-04T10:34:13;9.93;;;7.20;;
5937;SDS011;2994;51.220;4.412;2022-10-04T10:36:54;10.40;;;7.03;;
5937;SDS011;2994;51.220;4.412;2022-10-04T10:42:19;7.97;;;7.17;;
5937;SDS011;2994;51.220;4.412;2022-10-04T10:56:44;13.30;;;7.30;;
5937;SDS011;2994;51.220;4.412;2022-10-04T11:24:44;7.00;;;5.67;;
5937;SDS011;2994;51.220;4.412;2022-10-04T11:27:25;8.40;;;6.23;;
5937;SDS011;2994;51.220;4.412;2022-10-04T11:38:30;11.63;;;6.00;;
5937;SDS011;2994;51.220;4.412;2022-10-04T11:46:38;9.50;;;5.80;;
5937;SDS011;2994;51.220;4.412;2022-10-04T12:00:17;9.27;;;6.33;;
5937;SDS011;2994;51.220;4.412;2022-10-04T12:03:12;6.13;;;5.27;;
5937;SDS011;2994;51.220;4.412;2022-10-04T12:06:13;6.63;;;5.23;;
5937;SDS011;2994;51.220;4.412;2022-10-04T12:08:47;9.37;;;7.33;;
5937;SDS011;2994;51.220;4.412;2022-10-04T12:22:33;8.03;;;5.07;;
5937;SDS011;2994;51.220;4.412;2022-10-04T12:25:10;10.13;;;6.60;;
5937;SDS011;2994;51.220;4.412;2022-10-04T12:47:24;5.57;;;4.70;;
5937;SDS011;2994;51.220;4.412;2022-10-04T12:50:21;4.83;;;4.23;;
5937;SDS011;2994;51.220;4.412;2022-10-04T12:58:28;6.20;;;5.23;;
5937;SDS011;2994;51.220;4.412;2022-10-04T13:01:17;6.60;;;5.10;;
5937;SDS011;2994;51.220;4.412;2022-10-04T13:09:43;6.90;;;4.90;;
5937;SDS011;2994;51.220;4.412;2022-10-04T13:17:43;8.60;;;5.67;;
5937;SDS011;2994;51.220;4.412;2022-10-04T13:25:38;7.87;;;4.93;;
5937;SDS011;2994;51.220;4.412;2022-10-04T13:36:39;5.50;;;4.30;;
5937;SDS011;2994;51.220;4.412;2022-10-04T13:50:14;4.17;;;3.77;;
5937;SDS011;2994;51.220;4.412;2022-10-04T13:52:55;5.40;;;3.80;;
5937;SDS011;2994;51.220;4.412;2022-10-04T13:55:47;7.00;;;3.63;;
5937;SDS011;2994;51.220;4.412;2022-10-04T14:18:13;8.93;;;4.50;;
5937;SDS011;2994;51.220;4.412;2022-10-04T14:32:24;6.73;;;4.77;;
5937;SDS011;2994;51.220;4.412;2022-10-04T14:43:16;4.93;;;3.77;;
5937;SDS011;2994;51.220;4.412;2022-10-04T14:54:07;4.47;;;3.90;;
5937;SDS011;2994;51.220;4.412;2022-10-04T14:56:41;4.03;;;3.63;;
5937;SDS011;2994;51.220;4.412;2022-10-04T15:07:31;4.20;;;3.30;;
5937;SDS011;2994;51.220;4.412;2022-10-04T15:10:44;5.93;;;3.60;;
5937;SDS011;2994;51.220;4.412;2022-10-04T15:23:53;4.13;;;3.70;;
5937;SDS011;2994;51.220;4.412;2022-10-04T15:40:23;6.30;;;3.90;;
5937;SDS011;2994;51.220;4.412;2022-10-04T15:42:55;8.33;;;4.17;;
5937;SDS011;2994;51.220;4.412;2022-10-04T15:45:29;4.63;;;4.17;;
5937;SDS011;2994;51.220;4.412;2022-10-04T15:48:04;5.70;;;3.90;;
5937;SDS011;2994;51.220;4.412;2022-10-04T15:58:41;4.60;;;3.90;;
5937;SDS011;2994;51.220;4.412;2022-10-04T16:04:40;4.63;;;3.40;;
5937;SDS011;2994;51.220;4.412;2022-10-04T16:15:38;5.20;;;4.10;;
5937;SDS011;2994;51.220;4.412;2022-10-04T16:26:00;4.90;;;3.80;;
5937;SDS011;2994;51.220;4.412;2022-10-04T16:36:42;4.43;;;4.03;;
5937;SDS011;2994;51.220;4.412;2022-10-04T16:39:09;6.30;;;4.00;;
5937;SDS011;2994;51.220;4.412;2022-10-04T16:41:58;5.60;;;3.97;;
5937;SDS011;2994;51.220;4.412;2022-10-04T16:44:35;4.80;;;4.33;;
5937;SDS011;2994;51.220;4.412;2022-10-04T16:47:21;5.40;;;4.47;;
5937;SDS011;2994;51.220;4.412;2022-10-04T16:50:09;5.40;;;4.37;;
5937;SDS011;2994;51.220;4.412;2022-10-04T16:52:53;5.03;;;4.27;;
5937;SDS011;2994;51.220;4.412;2022-10-04T17:03:57;4.10;;;3.70;;
5937;SDS011;2994;51.220;4.412;2022-10-04T17:06:32;5.07;;;4.20;;
5937;SDS011;2994;51.220;4.412;2022-10-04T17:09:31;6.13;;;4.07;;
5937;SDS011;2994;51.220;4.412;2022-10-04T17:17:22;5.00;;;3.70;;
5937;SDS011;2994;51.220;4.412;2022-10-04T17:20:01;4.60;;;4.07;;
5937;SDS011;2994;51.220;4.412;2022-10-04T17:22:42;4.30;;;3.83;;
5937;SDS011;2994;51.220;4.412;2022-10-04T17:31:10;6.10;;;3.90;;
5937;SDS011;2994;51.220;4.412;2022-10-04T17:47:41;6.53;;;5.97;;
5937;SDS011;2994;51.220;4.412;2022-10-04T17:53:38;4.83;;;4.43;;
5937;SDS011;2994;51.220;4.412;2022-10-04T17:56:35;6.33;;;5.10;;
5937;SDS011;2994;51.220;4.412;2022-10-04T17:59:10;5.80;;;5.00;;
5937;SDS011;2994;51.220;4.412;2022-10-04T18:04:26;6.03;;;5.43;;
5937;SDS011;2994;51.220;4.412;2022-10-04T18:06:57;5.57;;;4.80;;
5937;SDS011;2994;51.220;4.412;2022-10-04T18:09:39;5.20;;;4.70;;
5937;SDS011;2994;51.220;4.412;2022-10-04T18:12:11;7.07;;;5.67;;
5937;SDS011;2994;51.220;4.412;2022-10-04T18:17:34;6.73;;;4.90;;
5937;SDS011;2994;51.220;4.412;2022-10-04T18:20:15;6.83;;;4.90;;
5937;SDS011;2994;51.220;4.412;2022-10-04T18:22:49;5.47;;;4.97;;
5937;SDS011;2994;51.220;4.412;2022-10-04T18:25:39;5.67;;;5.07;;
5937;SDS011;2994;51.220;4.412;2022-10-04T18:38:19;9.13;;;5.83;;
5937;SDS011;2994;51.220;4.412;2022-10-04T18:40:54;5.27;;;4.77;;
5937;SDS011;2994;51.220;4.412;2022-10-04T18:43:29;8.23;;;6.40;;
5937;SDS011;2994;51.220;4.412;2022-10-04T18:46:01;8.07;;;5.57;;
5937;SDS011;2994;51.220;4.412;2022-10-04T18:56:27;6.43;;;5.17;;
5937;SDS011;2994;51.220;4.412;2022-10-04T18:59:00;7.10;;;6.40;;
5937;SDS011;2994;51.220;4.412;2022-10-04T19:02:11;7.30;;;5.80;;
5937;SDS011;2994;51.220;4.412;2022-10-04T19:05:13;7.67;;;6.80;;
5937;SDS011;2994;51.220;4.412;2022-10-04T19:07:51;6.30;;;5.37;;
5937;SDS011;2994;51.220;4.412;2022-10-04T19:10:31;6.40;;;5.70;;
5937;SDS011;2994;51.220;4.412;2022-10-04T19:21:14;7.27;;;5.83;;
5937;SDS011;2994;51.220;4.412;2022-10-04T19:24:15;8.97;;;6.97;;
5937;SDS011;2994;51.220;4.412;2022-10-04T19:26:48;7.67;;;6.50;;
5937;SDS011;2994;51.220;4.412;2022-10-04T19:32:03;6.93;;;5.80;;
5937;SDS011;2994;51.220;4.412;2022-10-04T19:38:19;8.87;;;6.50;;
5937;SDS011;2994;51.220;4.412;2022-10-04T19:41:23;6.70;;;6.10;;
5937;SDS011;2994;51.220;4.412;2022-10-04T19:50:13;7.93;;;6.47;;
5937;SDS011;2994;51.220;4.412;2022-10-04T19:57:51;7.40;;;6.00;;
5937;SDS011;2994;51.220;4.412;2022-10-04T20:00:25;8.83;;;6.63;;
5937;SDS011;2994;51.220;4.412;2022-10-04T20:02:51;9.80;;;6.73;;
5937;SDS011;2994;51.220;4.412;2022-10-04T20:05:17;6.87;;;6.00;;
5937;SDS011;2994;51.220;4.412;2022-10-04T20:07:51;6.73;;;6.03;;
5937;SDS011;2994;51.220;4.412;2022-10-04T20:10:31;8.90;;;6.33;;
5937;SDS011;2994;51.220;4.412;2022-10-04T20:32:00;9.10;;;6.20;;
5937;SDS011;2994;51.220;4.412;2022-10-04T20:34:30;7.77;;;7.00;;
5937;SDS011;2994;51.220;4.412;2022-10-04T20:37:05;9.70;;;6.23;;
5937;SDS011;2994;51.220;4.412;2022-10-04T20:42:10;7.93;;;7.03;;
5937;SDS011;2994;51.220;4.412;2022-10-04T20:50:11;7.97;;;6.47;;
5937;SDS011;2994;51.220;4.412;2022-10-04T20:52:41;7.10;;;6.37;;
5937;SDS011;2994;51.220;4.412;2022-10-04T20:55:28;7.07;;;5.83;;
5937;SDS011;2994;51.220;4.412;2022-10-04T20:57:58;8.30;;;6.60;;
5937;SDS011;2994;51.220;4.412;2022-10-04T21:00:27;8.93;;;7.33;;
5937;SDS011;2994;51.220;4.412;2022-10-04T21:05:59;7.13;;;6.30;;
5937;SDS011;2994;51.220;4.412;2022-10-04T21:08:27;9.03;;;6.60;;
5937;SDS011;2994;51.220;4.412;2022-10-04T21:13:53;8.60;;;7.17;;
5937;SDS011;2994;51.220;4.412;2022-10-04T21:16:32;9.93;;;6.20;;
5937;SDS011;2994;51.220;4.412;2022-10-04T21:21:54;7.10;;;6.10;;
5937;SDS011;2994;51.220;4.412;2022-10-04T21:24:36;9.53;;;5.97;;
5937;SDS011;2994;51.220;4.412;2022-10-04T21:27:04;8.63;;;5.90;;
5937;SDS011;2994;51.220;4.412;2022-10-04T21:29:32;8.43;;;7.53;;
5937;SDS011;2994;51.220;4.412;2022-10-04T21:31:58;9.40;;;6.37;;
5937;SDS011;2994;51.220;4.412;2022-10-04T21:34:23;7.50;;;6.43;;
5937;SDS011;2994;51.220;4.412;2022-10-04T21:36:49;8.10;;;6.63;;
5937;SDS011;2994;51.220;4.412;2022-10-04T21:39:15;8.27;;;6.57;;
5937;SDS011;2994;51.220;4.412;2022-10-04T21:41:40;8.27;;;6.67;;
5937;SDS011;2994;51.220;4.412;2022-10-04T21:44:06;8.60;;;7.00;;
5937;SDS011;2994;51.220;4.412;2022-10-04T21:46:31;7.50;;;6.73;;
5937;SDS011;2994;51.220;4.412;2022-10-04T21:48:57;10.10;;;6.40;;
5937;SDS011;2994;51.220;4.412;2022-10-04T21:51:22;9.47;;;7.10;;
5937;SDS011;2994;51.220;4.412;2022-10-04T21:53:48;8.90;;;6.47;;
5937;SDS011;2994;51.220;4.412;2022-10-04T21:56:13;8.53;;;6.30;;
5937;SDS011;2994;51.220;4.412;2022-10-04T21:58:38;7.47;;;6.67;;
5937;SDS011;2994;51.220;4.412;2022-10-04T22:01:04;8.30;;;7.40;;
5937;SDS011;2994;51.220;4.412;2022-10-04T22:03:30;8.70;;;6.00;;
5937;SDS011;2994;51.220;4.412;2022-10-04T22:05:55;11.70;;;6.73;;
5937;SDS011;2994;51.220;4.412;2022-10-04T22:08:21;7.37;;;6.70;;
5937;SDS011;2994;51.220;4.412;2022-10-04T22:10:46;7.97;;;6.80;;
5937;SDS011;2994;51.220;4.412;2022-10-04T22:13:12;8.30;;;6.90;;
5937;SDS011;2994;51.220;4.412;2022-10-04T22:15:38;8.67;;;7.20;;
5937;SDS011;2994;51.220;4.412;2022-10-04T22:18:03;8.37;;;7.57;;
5937;SDS011;2994;51.220;4.412;2022-10-04T22:20:29;8.10;;;6.60;;
5937;SDS011;2994;51.220;4.412;2022-10-04T22:22:55;9.33;;;6.73;;
5937;SDS011;2994;51.220;4.412;2022-10-04T22:25:22;9.23;;;6.27;;
5937;SDS011;2994;51.220;4.412;2022-10-04T22:27:49;6.80;;;6.20;;
5937;SDS011;2994;51.220;4.412;2022-10-04T22:30:20;7.83;;;6.47;;
5937;SDS011;2994;51.220;4.412;2022-10-04T22:32:48;8.47;;;6.93;;
5937;SDS011;2994;51.220;4.412;2022-10-04T22:35:18;8.00;;;7.13;;
5937;SDS011;2994;51.220;4.412;2022-10-04T22:37:45;8.63;;;6.70;;
5937;SDS011;2994;51.220;4.412;2022-10-04T22:40:17;11.70;;;8.07;;
5937;SDS011;2994;51.220;4.412;2022-10-04T22:42:56;9.43;;;7.23;;
5937;SDS011;2994;51.220;4.412;2022-10-04T22:45:25;7.57;;;6.77;;
5937;SDS011;2994;51.220;4.412;2022-10-04T22:47:53;10.70;;;7.00;;
5937;SDS011;2994;51.220;4.412;2022-10-04T22:50:25;11.20;;;7.20;;
5937;SDS011;2994;51.220;4.412;2022-10-04T22:53:03;12.23;;;6.70;;
5937;SDS011;2994;51.220;4.412;2022-10-04T22:55:43;9.80;;;6.63;;
5937;SDS011;2994;51.220;4.412;2022-10-04T22:58:12;9.13;;;6.70;;
5937;SDS011;2994;51.220;4.412;2022-10-04T23:00:38;7.83;;;7.00;;
5937;SDS011;2994;51.220;4.412;2022-10-04T23:03:26;7.27;;;5.77;;
5937;SDS011;2994;51.220;4.412;2022-10-04T23:05:57;9.60;;;6.87;;
5937;SDS011;2994;51.220;4.412;2022-10-04T23:08:24;10.47;;;6.90;;
5937;SDS011;2994;51.220;4.412;2022-10-04T23:10:55;7.37;;;6.67;;
5937;SDS011;2994;51.220;4.412;2022-10-04T23:13:22;8.07;;;7.27;;
5937;SDS011;2994;51.220;4.412;2022-10-04T23:15:48;7.10;;;5.97;;
5937;SDS011;2994;51.220;4.412;2022-10-04T23:18:14;8.03;;;6.37;;
5937;SDS011;2994;51.220;4.412;2022-10-04T23:20:40;8.40;;;6.53;;
5937;SDS011;2994;51.220;4.412;2022-10-04T23:23:10;10.00;;;6.57;;
5937;SDS011;2994;51.220;4.412;2022-10-04T23:25:42;8.83;;;7.17;;
5937;SDS011;2994;51.220;4.412;2022-10-04T23:28:11;9.00;;;7.17;;
5937;SDS011;2994;51.220;4.412;2022-10-04T23:30:39;8.20;;;6.83;;
5937;SDS011;2994;51.220;4.412;2022-10-04T23:33:05;7.70;;;6.80;;
5937;SDS011;2994;51.220;4.412;2022-10-04T23:35:43;8.67;;;7.10;;
5937;SDS011;2994;51.220;4.412;2022-10-04T23:38:11;9.00;;;6.73;;
5937;SDS011;2994;51.220;4.412;2022-10-04T23:40:38;9.10;;;7.20;;
5937;SDS011;2994;51.220;4.412;2022-10-04T23:43:04;8.53;;;7.33;;
5937;SDS011;2994;51.220;4.412;2022-10-04T23:45:30;8.03;;;6.83;;
5937;SDS011;2994;51.220;4.412;2022-10-04T23:47:56;7.23;;;6.53;;
5937;SDS011;2994;51.220;4.412;2022-10-04T23:52:54;8.10;;;6.90;;
5937;SDS011;2994;51.220;4.412;2022-10-04T23:55:27;9.23;;;7.33;;
5937;SDS011;2994;51.220;4.412;2022-10-04T23:57:57;8.23;;;6.13;;
